Terminal Aerodrome Forecast
Issued by NWS Charleston, WV

Current Version | Previous Version | Text Only | Print | Product List | Glossary Off
Versions: 1 2 3 4 5 6 7 8 9 10 11 12 13 14 15 16 17 18 19 20 21 22 23 24 25 26 27 28 29 30

413
FTUS41 KRLX 231242 AAA
TAFEKN
TAF AMD
KEKN 231242Z 2313/2412 00000KT P6SM BKN010 OVC015
     FM231700 32005KT P6SM SCT025
     FM232000 32006KT P6SM SCT035
     FM240000 35004KT P6SM FEW250
     FM240800 00000KT 4SM BR FEW250
     FM240900 00000KT 1SM BR FEW250
     FM241100 00000KT 3SM BR FEW250=

USA.gov is the U.S. government's official web portal to all federal, state and local government web resources and services.